createdAt,value
2022-08-01T00:00:08.990Z,96.50
2022-08-01T00:02:38.766Z,95.80
2022-08-01T00:05:06.874Z,95.70
2022-08-01T00:07:34.439Z,95.00
2022-08-01T00:10:01.283Z,94.80
2022-08-01T00:12:28.105Z,94.60
2022-08-01T00:14:54.671Z,95.50
2022-08-01T00:17:21.302Z,96.20
2022-08-01T00:19:47.922Z,96.60
2022-08-01T00:22:14.504Z,96.60
2022-08-01T00:24:41.106Z,96.70
2022-08-01T00:27:07.704Z,95.70
2022-08-01T00:30:10.445Z,95.10
2022-08-01T00:32:20.865Z,96.80
2022-08-01T00:34:47.432Z,95.00
2022-08-01T00:37:15.944Z,95.10
2022-08-01T00:39:43.014Z,96.70
2022-08-01T00:42:13.530Z,96.20
2022-08-01T00:44:40.867Z,96.40
2022-08-01T00:47:07.744Z,95.80
2022-08-01T00:49:34.543Z,96.60
2022-08-01T00:52:03.327Z,95.90
2022-08-01T00:54:30.641Z,95.80
2022-08-01T00:56:58.166Z,95.40
2022-08-01T00:59:25.830Z,95.60
2022-08-01T01:01:52.875Z,96.30
2022-08-01T01:04:20.702Z,95.40
2022-08-01T01:06:56.198Z,95.40
2022-08-01T01:09:46.901Z,95.00
2022-08-01T01:12:25.585Z,96.50
2022-08-01T01:15:05.088Z,96.10
2022-08-01T01:17:50.553Z,95.40
2022-08-01T01:20:19.399Z,96.10
2022-08-01T01:22:58.615Z,96.50
2022-08-01T01:25:33.577Z,96.80
2022-08-01T01:28:34.366Z,97.00
2022-08-01T01:31:03.141Z,96.80
2022-08-01T01:33:32.745Z,96.10
2022-08-01T01:36:04.450Z,96.40
2022-08-01T01:38:45.385Z,96.00
2022-08-01T01:41:13.741Z,96.70
2022-08-01T01:43:41.415Z,97.00
2022-08-01T01:46:10.077Z,96.80
2022-08-01T01:48:38.439Z,95.70
2022-08-01T01:51:06.057Z,95.80
2022-08-01T01:53:35.839Z,96.20
2022-08-01T01:56:03.823Z,96.30
2022-08-01T01:58:33.823Z,96.80
2022-08-01T02:01:02.834Z,96.20
2022-08-01T02:03:31.372Z,95.70
2022-08-01T02:05:58.472Z,95.10
2022-08-01T02:08:29.148Z,95.30
2022-08-01T02:11:18.670Z,95.60
2022-08-01T02:13:58.071Z,96.10
2022-08-01T02:16:27.876Z,98.10
2022-08-01T02:18:54.950Z,97.90
2022-08-01T02:21:29.240Z,98.10
2022-08-01T02:24:01.623Z,98.00
2022-08-01T02:26:31.870Z,97.00
2022-08-01T02:29:03.421Z,96.80
2022-08-01T02:31:33.257Z,96.30
2022-08-01T02:34:10.165Z,97.20
2022-08-01T02:36:38.203Z,97.10
2022-08-01T02:39:09.417Z,97.10
2022-08-01T02:41:43.197Z,97.40
2022-08-01T02:44:15.703Z,97.40
2022-08-01T02:46:49.920Z,97.80
2022-08-01T02:49:20.199Z,97.60
2022-08-01T02:51:49.164Z,97.80
2022-08-01T02:54:18.256Z,98.20
2022-08-01T02:56:46.451Z,98.20
2022-08-01T02:59:19.783Z,97.80
2022-08-01T03:01:50.228Z,97.70
2022-08-01T03:04:19.720Z,97.00
2022-08-01T03:06:48.212Z,96.80
2022-08-01T03:09:16.754Z,97.00
2022-08-01T03:11:44.846Z,97.00
2022-08-01T03:14:12.828Z,97.30
2022-08-01T03:16:42.817Z,96.80
2022-08-01T03:19:12.296Z,97.30
2022-08-01T03:21:41.246Z,97.00
2022-08-01T03:24:10.231Z,97.00
2022-08-01T03:26:40.398Z,97.40
2022-08-01T03:29:16.937Z,97.60
2022-08-01T03:31:45.981Z,97.40
2022-08-01T03:34:13.237Z,97.50
2022-08-01T03:36:49.941Z,98.00
2022-08-01T03:39:18.726Z,98.20
2022-08-01T03:41:56.629Z,97.90
2022-08-01T03:44:28.264Z,97.80
2022-08-01T03:47:00.497Z,98.00
2022-08-01T03:49:43.533Z,98.00
2022-08-01T03:52:11.576Z,98.20
2022-08-01T03:54:43.017Z,97.70
2022-08-01T03:57:34.910Z,97.60
2022-08-01T03:59:59.342Z,97.30
2022-08-01T04:02:28.062Z,97.50
2022-08-01T04:04:55.508Z,97.50
2022-08-01T04:07:26.636Z,97.50
2022-08-01T04:09:53.559Z,97.50
2022-08-01T04:12:20.519Z,97.70
2022-08-01T04:14:47.915Z,97.90
2022-08-01T04:17:14.605Z,98.00
2022-08-01T04:19:41.635Z,98.20
2022-08-01T04:22:10.906Z,98.40
2022-08-01T04:24:38.168Z,98.40
2022-08-01T04:27:10.988Z,98.50
2022-08-01T04:29:39.392Z,98.90
2022-08-01T04:32:10.634Z,98.90
2022-08-01T04:34:40.880Z,98.60
2022-08-01T04:37:11.199Z,98.70
2022-08-01T04:39:51.219Z,98.80
2022-08-01T04:42:25.199Z,98.80
2022-08-01T04:44:54.833Z,98.50
2022-08-01T04:47:22.027Z,99.00
2022-08-01T04:49:49.430Z,98.90
2022-08-01T04:52:23.033Z,98.70
2022-08-01T04:54:51.311Z,98.20
2022-08-01T04:57:17.897Z,97.90
2022-08-01T04:59:45.193Z,98.00
2022-08-01T05:02:19.685Z,97.60
2022-08-01T05:04:47.213Z,98.20
2022-08-01T05:07:14.069Z,98.30
2022-08-01T05:09:46.915Z,98.40
2022-08-01T05:12:13.712Z,97.20
2022-08-01T05:14:41.129Z,97.30
2022-08-01T05:17:09.455Z,96.60
2022-08-01T05:19:38.363Z,97.00
2022-08-01T05:22:08.149Z,97.40
2022-08-01T05:24:40.290Z,97.40
2022-08-01T05:27:11.647Z,96.70
2022-08-01T05:29:44.572Z,97.00
2022-08-01T05:32:11.781Z,95.80
2022-08-01T05:34:38.340Z,96.70
2022-08-01T05:37:05.012Z,96.20
2022-08-01T05:39:31.718Z,95.80
2022-08-01T05:41:58.281Z,95.60
2022-08-01T05:44:26.065Z,95.90
2022-08-01T05:46:52.740Z,95.80
2022-08-01T05:49:19.392Z,95.90
2022-08-01T05:51:46.043Z,96.40
2022-08-01T05:54:12.616Z,97.20
2022-08-01T05:56:39.208Z,96.30
2022-08-01T05:59:05.878Z,95.90
2022-08-01T06:01:32.531Z,96.00
2022-08-01T06:03:59.126Z,95.70
2022-08-01T06:06:26.393Z,95.00
2022-08-01T06:08:53.000Z,95.00
2022-08-01T06:11:19.695Z,95.50
2022-08-01T06:13:48.793Z,94.90
2022-08-01T06:16:16.266Z,94.50
2022-08-01T06:18:43.159Z,94.10
2022-08-01T06:21:09.920Z,94.20
2022-08-01T06:23:36.669Z,94.10
2022-08-01T06:26:03.301Z,94.30
2022-08-01T06:28:30.362Z,94.90
2022-08-01T06:30:57.021Z,95.00
2022-08-01T06:33:24.033Z,95.40
2022-08-01T06:35:50.656Z,95.10
2022-08-01T06:38:17.287Z,94.50
2022-08-01T06:40:44.201Z,95.40
2022-08-01T06:43:12.601Z,94.70
2022-08-01T06:45:40.871Z,95.40
2022-08-01T06:48:07.618Z,95.00
2022-08-01T06:50:36.644Z,94.30
2022-08-01T06:53:03.461Z,94.40
2022-08-01T06:55:30.102Z,94.10
2022-08-01T06:57:56.861Z,94.30
2022-08-01T07:00:25.606Z,95.20
2022-08-01T07:02:53.625Z,94.40
2022-08-01T07:05:21.099Z,95.10
2022-08-01T07:07:48.097Z,95.50
2022-08-01T07:10:14.820Z,94.80
2022-08-01T07:12:41.966Z,95.40
2022-08-01T07:15:10.218Z,95.40
2022-08-01T07:17:41.273Z,95.20
2022-08-01T07:20:10.652Z,94.80
2022-08-01T07:22:38.321Z,95.00
2022-08-01T07:25:08.216Z,94.20
2022-08-01T07:27:37.581Z,94.30
2022-08-01T07:30:05.784Z,94.40
2022-08-01T07:32:32.862Z,94.10
2022-08-01T07:34:59.478Z,93.60
2022-08-01T07:37:47.166Z,94.20
2022-08-01T07:40:14.821Z,94.00
2022-08-01T07:42:45.774Z,93.50
2022-08-01T07:45:22.214Z,93.60
2022-08-01T07:47:50.447Z,93.80
2022-08-01T07:50:17.668Z,93.70
2022-08-01T07:52:44.967Z,94.00
2022-08-01T07:55:16.494Z,93.40
2022-08-01T07:57:43.441Z,93.10
2022-08-01T08:00:10.747Z,93.30
2022-08-01T08:02:37.535Z,93.60
2022-08-01T08:05:04.807Z,94.10
2022-08-01T08:07:32.309Z,93.30
2022-08-01T08:09:59.084Z,93.20
2022-08-01T08:12:28.887Z,93.80
2022-08-01T08:14:57.542Z,94.00
2022-08-01T08:17:24.213Z,93.30
2022-08-01T08:19:50.799Z,93.80
2022-08-01T08:22:17.377Z,93.30
2022-08-01T08:24:46.100Z,93.00
2022-08-01T08:27:13.702Z,93.60
2022-08-01T08:29:40.313Z,93.20
2022-08-01T08:32:07.749Z,92.80
2022-08-01T08:34:35.061Z,92.90
2022-08-01T08:37:01.676Z,92.60
2022-08-01T08:39:30.461Z,92.70
2022-08-01T08:42:00.371Z,92.60
2022-08-01T08:44:27.010Z,92.90
2022-08-01T08:46:54.063Z,92.40
2022-08-01T08:49:23.037Z,92.30
2022-08-01T08:51:52.127Z,91.70
2022-08-01T08:54:22.836Z,92.00
2022-08-01T08:56:59.758Z,92.00
2022-08-01T08:59:27.284Z,92.10
2022-08-01T09:01:53.964Z,91.80
2022-08-01T09:04:26.078Z,91.80
2022-08-01T09:06:54.085Z,91.80
2022-08-01T09:09:20.741Z,92.40
2022-08-01T09:11:57.444Z,91.70
2022-08-01T09:14:27.983Z,91.60
2022-08-01T09:17:09.669Z,92.40
2022-08-01T09:19:42.064Z,91.70
2022-08-01T09:22:22.225Z,91.90
2022-08-01T09:24:58.751Z,91.50
2022-08-01T09:27:26.328Z,91.40
2022-08-01T09:30:00.829Z,91.30
2022-08-01T09:32:35.316Z,91.50
2022-08-01T09:35:29.808Z,91.10
2022-08-01T09:38:13.337Z,90.90
2022-08-01T09:40:55.626Z,91.20
2022-08-01T09:43:24.569Z,91.20
2022-08-01T09:45:53.055Z,92.10
2022-08-01T09:48:22.428Z,91.50
2022-08-01T09:50:52.645Z,92.10
2022-08-01T09:53:28.652Z,91.60
2022-08-01T09:56:12.764Z,92.00
2022-08-01T09:59:01.623Z,91.70
2022-08-01T10:01:43.022Z,91.90
2022-08-01T10:04:15.526Z,91.50
2022-08-01T10:06:53.342Z,91.70
2022-08-01T10:09:40.336Z,92.10
2022-08-01T10:12:15.661Z,91.70
2022-08-01T10:14:46.386Z,91.70
2022-08-01T10:17:18.554Z,91.00
2022-08-01T10:19:51.071Z,90.80
2022-08-01T10:22:20.372Z,90.80
2022-08-01T10:24:48.654Z,90.70
2022-08-01T10:27:21.409Z,90.70
2022-08-01T10:30:06.880Z,90.90
2022-08-01T10:32:39.471Z,90.80
2022-08-01T10:35:07.591Z,90.70
2022-08-01T10:37:51.509Z,90.50
2022-08-01T10:40:35.574Z,90.90
2022-08-01T10:43:03.753Z,90.50
2022-08-01T10:45:31.459Z,90.40
2022-08-01T10:48:11.980Z,90.20
2022-08-01T10:50:48.910Z,89.80
2022-08-01T10:53:24.148Z,89.70
2022-08-01T10:55:59.308Z,90.60
2022-08-01T10:58:42.459Z,89.80
2022-08-01T11:01:15.776Z,89.40
2022-08-01T11:03:56.807Z,90.10
2022-08-01T11:06:29.498Z,89.90
2022-08-01T11:08:58.604Z,88.90
2022-08-01T11:11:27.675Z,90.10
2022-08-01T11:13:59.305Z,89.20
2022-08-01T11:16:31.120Z,89.00
2022-08-01T11:18:59.284Z,89.80
2022-08-01T11:21:59.378Z,88.20
2022-08-01T11:24:46.522Z,89.50
2022-08-01T11:27:23.848Z,89.10
2022-08-01T11:30:09.281Z,89.00
2022-08-01T11:33:10.769Z,89.40
2022-08-01T11:35:39.993Z,89.90
2022-08-01T11:38:43.417Z,89.40
2022-08-01T11:41:37.918Z,88.10
2022-08-01T11:44:11.807Z,87.20
2022-08-01T11:47:08.980Z,87.40
2022-08-01T11:49:55.508Z,88.50
2022-08-01T11:52:30.955Z,87.80
2022-08-01T11:55:05.835Z,86.10
2022-08-01T11:57:38.155Z,85.60
2022-08-01T12:00:16.660Z,85.40
2022-08-01T12:02:45.822Z,85.40
2022-08-01T12:05:15.450Z,87.10
2022-08-01T12:07:43.839Z,86.10
2022-08-01T12:10:16.825Z,85.90
2022-08-01T12:12:46.836Z,85.40
2022-08-01T12:15:14.599Z,85.60
2022-08-01T12:17:57.918Z,85.40
2022-08-01T12:20:30.934Z,86.10
2022-08-01T12:23:03.687Z,86.30
2022-08-01T12:25:30.415Z,85.80
2022-08-01T12:28:02.442Z,84.30
2022-08-01T12:30:31.626Z,84.40
2022-08-01T12:32:58.572Z,83.90
2022-08-01T12:35:27.517Z,82.90
2022-08-01T12:38:01.251Z,84.10
2022-08-01T12:40:34.713Z,84.90
2022-08-01T12:43:07.419Z,84.90
2022-08-01T12:45:54.365Z,85.30
2022-08-01T12:48:23.304Z,85.60
2022-08-01T12:50:50.609Z,84.80
2022-08-01T12:53:19.503Z,84.70
2022-08-01T12:55:58.551Z,83.00
2022-08-01T12:58:33.027Z,80.00
2022-08-01T13:01:08.478Z,82.60
2022-08-01T13:03:35.330Z,82.80
2022-08-01T13:06:02.374Z,82.70
2022-08-01T13:08:36.036Z,81.40
2022-08-01T13:11:14.655Z,80.00
2022-08-01T13:13:43.579Z,82.00
2022-08-01T13:16:12.492Z,82.30
2022-08-01T13:18:55.111Z,83.40
2022-08-01T13:21:24.769Z,82.70
2022-08-01T13:24:13.504Z,83.90
2022-08-01T13:26:52.354Z,83.70
2022-08-01T13:29:24.167Z,83.40
2022-08-01T13:31:51.150Z,82.60
2022-08-01T13:34:17.994Z,83.40
2022-08-01T13:36:49.397Z,82.40
2022-08-01T13:39:35.123Z,83.90
2022-08-01T13:42:01.764Z,83.00
2022-08-01T13:44:28.391Z,82.40
2022-08-01T13:46:54.982Z,81.30
2022-08-01T13:49:22.987Z,82.10
2022-08-01T13:51:51.479Z,82.80
2022-08-01T13:54:19.235Z,83.50
2022-08-01T13:56:45.900Z,83.20
2022-08-01T13:59:13.316Z,83.00
2022-08-01T14:01:39.976Z,82.30
2022-08-01T14:04:06.764Z,83.00
2022-08-01T14:06:33.869Z,83.50
2022-08-01T14:09:01.175Z,82.60
2022-08-01T14:11:28.593Z,82.80
2022-08-01T14:14:00.531Z,82.50
2022-08-01T14:16:27.145Z,82.40
2022-08-01T14:18:53.794Z,81.50
2022-08-01T14:21:20.430Z,82.30
2022-08-01T14:23:47.032Z,82.90
2022-08-01T14:26:13.957Z,82.40
2022-08-01T14:28:40.620Z,83.00
2022-08-01T14:31:08.605Z,83.50
2022-08-01T14:33:35.381Z,84.00
2022-08-01T14:36:28.574Z,82.60
2022-08-01T14:38:51.735Z,81.60
2022-08-01T14:41:18.343Z,81.10
2022-08-01T14:43:45.470Z,82.90
2022-08-01T14:46:13.264Z,82.70
2022-08-01T14:48:40.157Z,83.90
2022-08-01T14:51:08.014Z,81.30
2022-08-01T14:53:37.194Z,82.10
2022-08-01T14:56:04.700Z,82.10
2022-08-01T14:58:31.422Z,82.80
2022-08-01T15:00:59.432Z,82.90
2022-08-01T15:03:27.136Z,82.00
2022-08-01T15:05:53.818Z,82.10
2022-08-01T15:08:20.547Z,82.40
2022-08-01T15:10:47.120Z,83.10
2022-08-01T15:13:13.814Z,81.20
2022-08-01T15:15:40.413Z,82.00
2022-08-01T15:18:07.001Z,82.30
2022-08-01T15:20:33.955Z,83.30
2022-08-01T15:23:00.750Z,82.90
2022-08-01T15:25:41.899Z,82.50
2022-08-01T15:28:12.471Z,83.00
2022-08-01T15:30:39.614Z,82.20
2022-08-01T15:33:06.414Z,81.70
2022-08-01T15:35:33.116Z,83.00
2022-08-01T15:37:59.876Z,83.60
2022-08-01T15:40:27.576Z,83.30
2022-08-01T15:42:54.264Z,84.20
2022-08-01T15:48:08.862Z,83.50
2022-08-01T15:50:35.529Z,82.30
2022-08-01T15:53:02.139Z,81.90
2022-08-01T15:55:28.763Z,82.20
2022-08-01T15:57:55.807Z,82.00
2022-08-01T16:00:22.689Z,82.10
2022-08-01T16:02:49.293Z,81.90
2022-08-01T16:05:19.692Z,80.80
2022-08-01T16:08:01.679Z,82.80
2022-08-01T16:10:29.789Z,83.30
2022-08-01T16:12:56.792Z,81.50
2022-08-01T16:15:33.544Z,82.20
2022-08-01T16:18:05.183Z,80.70
2022-08-01T16:20:31.795Z,82.90
2022-08-01T16:22:58.417Z,80.70
2022-08-01T16:25:25.003Z,82.00
2022-08-01T16:27:51.854Z,83.50
2022-08-01T16:30:18.577Z,81.90
2022-08-01T16:32:46.939Z,83.10
2022-08-01T16:35:19.393Z,79.90
2022-08-01T16:37:47.007Z,79.50
2022-08-01T16:40:13.628Z,79.80
2022-08-01T16:42:40.352Z,82.50
2022-08-01T16:45:13.703Z,80.80
2022-08-01T16:47:40.537Z,82.80
2022-08-01T16:50:09.378Z,82.00
2022-08-01T16:52:41.669Z,81.70
2022-08-01T16:55:10.237Z,82.20
2022-08-01T16:57:38.303Z,83.00
2022-08-01T17:00:11.039Z,82.70
2022-08-01T17:02:39.551Z,81.80
2022-08-01T17:05:12.694Z,82.40
2022-08-01T17:07:40.089Z,83.10
2022-08-01T17:10:07.720Z,82.50
2022-08-01T17:12:35.339Z,81.10
2022-08-01T17:15:02.144Z,82.50
2022-08-01T17:17:28.787Z,83.50
2022-08-01T17:19:55.393Z,83.30
2022-08-01T17:22:22.065Z,83.90
2022-08-01T17:24:50.920Z,81.70
2022-08-01T17:27:18.131Z,82.30
2022-08-01T17:29:45.404Z,81.70
2022-08-01T17:32:13.103Z,80.90
2022-08-01T17:34:40.441Z,81.50
2022-08-01T17:37:07.493Z,81.60
2022-08-01T17:39:38.716Z,81.20
2022-08-01T17:42:07.527Z,82.50
2022-08-01T17:44:37.537Z,82.80
2022-08-01T17:47:04.869Z,82.50
2022-08-01T17:49:53.757Z,82.30
2022-08-01T17:52:19.072Z,83.20
2022-08-01T17:54:45.678Z,83.80
2022-08-01T17:57:12.661Z,82.00
2022-08-01T17:59:39.357Z,83.40
2022-08-01T18:02:06.053Z,81.70
2022-08-01T18:04:33.962Z,81.50
2022-08-01T18:07:01.515Z,81.70
2022-08-01T18:09:33.474Z,83.10
2022-08-01T18:12:02.060Z,82.30
2022-08-01T18:14:40.000Z,83.10
2022-08-01T18:17:11.010Z,82.60
2022-08-01T18:19:38.973Z,82.00
2022-08-01T18:22:15.616Z,81.40
2022-08-01T18:24:53.171Z,82.80
2022-08-01T18:27:19.784Z,83.30
2022-08-01T18:29:47.032Z,82.80
2022-08-01T18:32:15.034Z,82.20
2022-08-01T18:34:41.660Z,82.10
2022-08-01T18:37:08.717Z,82.20
2022-08-01T18:39:35.972Z,82.50
2022-08-01T18:42:02.765Z,83.10
2022-08-01T18:44:29.982Z,83.80
2022-08-01T18:46:56.818Z,82.80
2022-08-01T18:49:23.509Z,83.10
2022-08-01T18:51:53.952Z,83.80
2022-08-01T18:54:20.831Z,84.80
2022-08-01T18:56:47.415Z,84.20
2022-08-01T18:59:14.176Z,83.40
2022-08-01T19:01:41.154Z,82.80
2022-08-01T19:04:08.982Z,85.40
2022-08-01T19:06:35.944Z,83.80
2022-08-01T19:09:03.517Z,85.10
2022-08-01T19:11:31.195Z,84.90
2022-08-01T19:13:58.472Z,84.40
2022-08-01T19:16:25.875Z,85.20
2022-08-01T19:18:52.532Z,84.50
2022-08-01T19:21:19.241Z,85.40
2022-08-01T19:24:04.510Z,84.00
2022-08-01T19:26:33.682Z,84.70
2022-08-01T19:29:19.550Z,85.40
2022-08-01T19:31:48.978Z,85.30
2022-08-01T19:34:18.678Z,85.20
2022-08-01T19:36:47.554Z,85.10
2022-08-01T19:39:21.515Z,86.20
2022-08-01T19:41:50.813Z,85.70
2022-08-01T19:44:19.598Z,85.50
2022-08-01T19:46:46.677Z,84.60
2022-08-01T19:49:15.091Z,84.80
2022-08-01T19:51:52.687Z,86.50
2022-08-01T19:54:21.503Z,87.40
2022-08-01T19:56:50.713Z,87.00
2022-08-01T19:59:20.492Z,87.10
2022-08-01T20:01:48.791Z,86.90
2022-08-01T20:04:16.574Z,88.40
2022-08-01T20:06:44.337Z,88.50
2022-08-01T20:09:12.947Z,88.20
2022-08-01T20:11:47.701Z,89.10
2022-08-01T20:14:18.451Z,89.60
2022-08-01T20:16:45.797Z,90.10
2022-08-01T20:19:12.925Z,90.00
2022-08-01T20:21:43.830Z,90.10
2022-08-01T20:24:39.456Z,90.80
2022-08-01T20:27:07.836Z,90.60
2022-08-01T20:29:36.100Z,90.30
2022-08-01T20:32:03.084Z,90.80
2022-08-01T20:34:31.610Z,90.90
2022-08-01T20:36:59.291Z,90.80
2022-08-01T20:39:28.761Z,91.20
2022-08-01T20:41:59.551Z,91.20
2022-08-01T20:44:27.378Z,91.50
2022-08-01T20:46:54.734Z,91.50
2022-08-01T20:49:22.662Z,91.70
2022-08-01T20:51:50.673Z,91.40
2022-08-01T20:54:17.437Z,91.50
2022-08-01T20:56:56.264Z,91.70
2022-08-01T20:59:39.674Z,91.80
2022-08-01T21:03:01.215Z,91.90
2022-08-01T21:05:42.722Z,91.80
2022-08-01T21:08:31.417Z,92.10
2022-08-01T21:10:59.402Z,92.30
2022-08-01T21:13:38.265Z,92.50
2022-08-01T21:16:24.181Z,92.20
2022-08-01T21:19:18.971Z,92.70
2022-08-01T21:21:56.221Z,92.70
2022-08-01T21:24:28.619Z,92.90
2022-08-01T21:26:56.768Z,93.10
2022-08-01T21:29:25.274Z,93.60
2022-08-01T21:32:11.281Z,93.90
2022-08-01T21:34:39.737Z,94.20
2022-08-01T21:37:09.965Z,94.50
2022-08-01T21:39:37.494Z,94.90
2022-08-01T21:42:08.999Z,95.10
2022-08-01T21:44:38.808Z,94.90
2022-08-01T21:47:06.554Z,95.00
2022-08-01T21:49:40.231Z,95.10
2022-08-01T21:52:18.186Z,95.50
2022-08-01T21:54:57.556Z,95.80
2022-08-01T21:58:03.995Z,95.50
2022-08-01T22:00:30.723Z,95.50
2022-08-01T22:03:13.202Z,95.40
2022-08-01T22:05:50.857Z,95.50
2022-08-01T22:08:33.614Z,95.70
2022-08-01T22:11:04.948Z,95.80
2022-08-01T22:13:35.855Z,96.00
2022-08-01T22:16:04.925Z,96.10
2022-08-01T22:18:33.800Z,96.10
2022-08-01T22:21:02.163Z,96.20
2022-08-01T22:23:29.042Z,95.90
2022-08-01T22:25:56.168Z,96.10
2022-08-01T22:28:23.761Z,96.20
2022-08-01T22:30:53.998Z,96.10
2022-08-01T22:33:20.694Z,95.70
2022-08-01T22:35:52.772Z,95.60
2022-08-01T22:38:22.470Z,96.10
2022-08-01T22:40:59.039Z,96.20
2022-08-01T22:43:56.532Z,96.20
2022-08-01T22:46:35.029Z,96.40
2022-08-01T22:50:02.054Z,96.50
2022-08-01T22:52:31.106Z,96.60
2022-08-01T22:55:09.881Z,96.50
2022-08-01T22:57:51.277Z,96.70
2022-08-01T23:00:18.654Z,96.80
2022-08-01T23:02:54.579Z,96.80
2022-08-01T23:05:22.687Z,96.90
2022-08-01T23:07:54.980Z,96.90
2022-08-01T23:10:23.597Z,97.00
2022-08-01T23:12:51.738Z,97.00
2022-08-01T23:15:19.528Z,96.80
2022-08-01T23:17:48.033Z,97.00
2022-08-01T23:20:15.927Z,97.00
2022-08-01T23:22:43.080Z,96.90
2022-08-01T23:25:15.286Z,96.80
2022-08-01T23:27:54.177Z,96.80
2022-08-01T23:30:33.625Z,97.10
2022-08-01T23:33:00.581Z,97.10
2022-08-01T23:35:28.704Z,96.80
2022-08-01T23:38:02.122Z,96.80
2022-08-01T23:40:34.230Z,97.00
2022-08-01T23:43:02.727Z,96.90
2022-08-01T23:46:02.420Z,97.00
2022-08-01T23:48:16.276Z,97.30
2022-08-01T23:50:43.077Z,97.50
2022-08-01T23:53:09.825Z,97.20
2022-08-01T23:55:37.956Z,97.20
2022-08-01T23:58:06.467Z,97.10
